createdAt,value
2018-11-23T00:02:00.133Z,22.40
2018-11-23T00:04:30.421Z,23.32
2018-11-23T00:07:00.444Z,24.65
2018-11-23T00:09:30.770Z,26.60
2018-11-23T00:12:01.015Z,23.92
2018-11-23T00:14:30.728Z,22.70
2018-11-23T00:17:00.944Z,23.07
2018-11-23T00:19:31.208Z,23.57
2018-11-23T00:22:01.595Z,22.80
2018-11-23T00:24:31.656Z,21.80
2018-11-23T00:27:01.998Z,20.97
2018-11-23T00:29:32.259Z,21.75
2018-11-23T00:32:02.468Z,24.23
2018-11-23T00:34:32.476Z,22.95
2018-11-23T00:37:02.717Z,22.50
2018-11-23T00:39:32.787Z,25.15
2018-11-23T00:42:03.166Z,25.20
2018-11-23T00:44:33.366Z,22.22
2018-11-23T00:47:03.713Z,19.52
2018-11-23T00:49:33.741Z,20.85
2018-11-23T00:52:03.840Z,19.87
2018-11-23T00:54:34.037Z,21.12
2018-11-23T00:57:04.321Z,22.02
2018-11-23T00:59:36.069Z,22.73
2018-11-23T01:02:07.305Z,21.77
2018-11-23T01:04:38.001Z,21.85
2018-11-23T01:07:08.076Z,21.68
2018-11-23T01:09:38.224Z,22.17
2018-11-23T01:12:08.415Z,23.05
2018-11-23T01:14:38.635Z,23.07
2018-11-23T01:17:08.974Z,23.67
2018-11-23T01:19:39.285Z,22.85
2018-11-23T01:22:09.540Z,23.67
2018-11-23T01:24:39.959Z,24.10
2018-11-23T01:27:11.280Z,22.25
2018-11-23T01:29:42.713Z,21.40
2018-11-23T01:32:12.746Z,20.48
2018-11-23T01:34:43.039Z,21.75
2018-11-23T01:37:13.273Z,21.30
2018-11-23T01:39:43.693Z,22.32
2018-11-23T01:42:14.023Z,21.15
2018-11-23T01:44:48.708Z,22.25
2018-11-23T01:47:20.580Z,20.57
2018-11-23T01:49:50.894Z,19.73
2018-11-23T01:52:21.382Z,22.45
2018-11-23T01:54:51.548Z,20.90
2018-11-23T01:57:21.982Z,18.98
2018-11-23T01:59:52.211Z,21.85
2018-11-23T02:02:22.378Z,21.17
2018-11-23T02:04:52.569Z,21.00
2018-11-23T02:07:23.081Z,20.52
2018-11-23T02:09:53.529Z,21.07
2018-11-23T02:12:23.882Z,20.10
2018-11-23T02:14:54.608Z,20.72
2018-11-23T02:17:25.191Z,22.65
2018-11-23T02:19:56.846Z,23.15
2018-11-23T02:22:28.112Z,23.22
2018-11-23T02:24:58.326Z,21.35
2018-11-23T02:27:28.586Z,22.13
2018-11-23T02:29:58.527Z,22.32
2018-11-23T02:32:28.456Z,22.73
2018-11-23T02:34:58.440Z,22.30
2018-11-23T02:37:28.499Z,21.45
2018-11-23T02:39:59.707Z,21.75
2018-11-23T02:42:29.845Z,22.77
2018-11-23T02:45:00.605Z,20.92
2018-11-23T02:47:30.726Z,24.87
2018-11-23T02:50:02.211Z,23.83
2018-11-23T02:52:32.470Z,23.32
2018-11-23T02:55:02.611Z,22.52
2018-11-23T02:57:33.404Z,20.23
2018-11-23T03:00:03.772Z,22.05
2018-11-23T03:02:33.884Z,20.55
2018-11-23T03:05:04.076Z,21.05
2018-11-23T03:07:34.258Z,20.77
2018-11-23T03:10:04.588Z,21.82
2018-11-23T03:12:34.804Z,20.12
2018-11-23T03:15:05.015Z,22.58
2018-11-23T03:17:35.284Z,22.70
2018-11-23T03:20:05.564Z,21.73
2018-11-23T03:22:35.684Z,19.57
2018-11-23T03:25:06.024Z,20.48
2018-11-23T03:27:36.299Z,22.15
2018-11-23T03:30:13.413Z,22.20
2018-11-23T03:32:44.196Z,21.50
2018-11-23T03:35:14.750Z,17.48
2018-11-23T03:37:45.268Z,20.45
2018-11-23T03:40:15.364Z,18.12
2018-11-23T03:42:45.352Z,17.35
2018-11-23T03:45:16.150Z,19.62
2018-11-23T03:47:46.597Z,18.42
2018-11-23T03:50:17.477Z,18.95
2018-11-23T03:52:48.662Z,18.90
2018-11-23T03:55:19.014Z,19.65
2018-11-23T03:57:49.554Z,21.70
2018-11-23T04:00:22.258Z,18.85
2018-11-23T04:02:53.056Z,18.98
2018-11-23T04:05:23.282Z,18.62
2018-11-23T04:07:53.372Z,18.90
2018-11-23T09:40:20.978Z,17.40
2018-11-23T09:42:51.338Z,17.20
2018-11-23T09:45:25.507Z,14.20
2018-11-23T09:47:56.999Z,15.97
2018-11-23T09:50:27.932Z,13.30
2018-11-23T09:53:00.792Z,15.17
2018-11-23T09:55:32.206Z,12.43
2018-11-23T09:58:02.274Z,15.50
2018-11-23T10:00:34.869Z,11.70
2018-11-23T10:03:05.587Z,11.90
2018-11-23T10:05:36.233Z,12.17
2018-11-23T10:08:07.662Z,13.03
2018-11-23T10:10:38.028Z,13.60
2018-11-23T10:13:08.688Z,13.93
2018-11-23T10:15:38.856Z,14.10
2018-11-23T10:18:09.110Z,13.60
2018-11-23T10:20:39.289Z,12.30
2018-11-23T10:23:14.706Z,11.97
2018-11-23T10:25:45.016Z,13.17
2018-11-23T10:28:15.116Z,11.33
2018-11-23T10:30:44.939Z,10.67
2018-11-23T10:33:16.245Z,12.60
2018-11-23T10:35:46.549Z,10.77
2018-11-23T10:38:16.590Z,12.10
2018-11-23T10:40:46.689Z,11.67
2018-11-23T10:43:16.770Z,14.50
2018-11-23T10:45:46.643Z,12.17
2018-11-23T10:48:17.070Z,14.43
2018-11-23T10:50:47.886Z,13.37
2018-11-23T10:53:18.026Z,14.37
2018-11-23T10:55:48.337Z,17.13
2018-11-23T10:58:18.588Z,16.03
2018-11-23T11:00:54.619Z,15.77
2018-11-23T11:03:33.913Z,13.07
2018-11-23T11:06:15.232Z,13.30
2018-11-23T11:08:45.730Z,14.13
2018-11-23T11:11:15.779Z,16.70
2018-11-23T11:13:45.718Z,16.20
2018-11-23T11:16:15.972Z,18.30
2018-11-23T11:18:46.096Z,16.60
2018-11-23T11:21:16.261Z,14.50
2018-11-23T11:23:46.564Z,15.50
2018-11-23T11:26:17.338Z,17.27
2018-11-23T11:28:47.505Z,17.90
2018-11-23T11:31:17.771Z,17.30
2018-11-23T11:33:47.889Z,17.30
2018-11-23T11:36:17.994Z,18.47
2018-11-23T11:38:48.231Z,15.90
2018-11-23T11:41:18.446Z,17.00
2018-11-23T11:43:48.715Z,19.40
2018-11-23T11:46:18.793Z,19.00
2018-11-23T11:48:48.905Z,16.10
2018-11-23T11:51:20.259Z,17.30
2018-11-23T11:53:50.690Z,17.30
2018-11-23T11:56:20.929Z,16.20
2018-11-23T11:58:54.104Z,17.17
2018-11-23T12:01:26.163Z,17.20
2018-11-23T12:03:57.000Z,21.20
2018-11-23T12:06:27.810Z,18.00
2018-11-23T12:08:58.607Z,17.37
2018-11-23T12:11:28.950Z,17.57
2018-11-23T12:13:59.334Z,19.63
2018-11-23T12:16:30.980Z,18.07
2018-11-23T12:19:01.151Z,18.50
2018-11-23T12:21:32.368Z,19.00
2018-11-23T12:24:02.724Z,19.87
2018-11-23T12:26:33.319Z,24.37
2018-11-23T12:29:03.713Z,25.70
2018-11-23T12:31:34.084Z,23.67
2018-11-23T12:34:04.328Z,22.40
2018-11-23T12:36:34.565Z,24.77
2018-11-23T12:39:05.499Z,25.20
2018-11-23T12:41:35.817Z,26.47
2018-11-23T12:44:06.477Z,26.20
2018-11-23T12:46:36.625Z,24.03
2018-11-23T12:49:07.625Z,21.60
2018-11-23T12:51:38.115Z,23.50
2018-11-23T12:54:08.884Z,24.33
2018-11-23T12:56:40.274Z,22.67
2018-11-23T12:59:10.958Z,22.85
2018-11-23T13:01:41.522Z,24.50
2018-11-23T13:04:13.562Z,24.47
2018-11-23T13:06:44.546Z,21.93
2018-11-23T13:09:14.957Z,23.42
2018-11-23T13:11:45.316Z,23.73
2018-11-23T13:14:15.331Z,22.95
2018-11-23T13:16:45.631Z,23.20
2018-11-23T13:19:15.731Z,24.23
2018-11-23T13:21:46.017Z,22.20
2018-11-23T13:24:16.201Z,22.35
2018-11-23T13:26:46.381Z,21.75
2018-11-23T13:29:16.568Z,22.07
2018-11-23T13:31:48.018Z,23.62
2018-11-23T13:34:18.316Z,23.27
2018-11-23T13:36:49.344Z,21.85
2018-11-23T13:39:19.626Z,22.10
2018-11-23T13:41:50.401Z,23.38
2018-11-23T13:44:23.519Z,22.10
2018-11-23T13:46:53.874Z,22.58
2018-11-23T13:49:24.126Z,24.57
2018-11-23T13:51:54.818Z,24.47
2018-11-23T13:54:25.139Z,21.65
2018-11-23T13:56:55.804Z,23.30
2018-11-23T13:59:26.832Z,24.60
2018-11-23T14:01:57.224Z,23.38
2018-11-23T14:04:35.686Z,23.52
2018-11-23T14:07:06.128Z,24.55
2018-11-23T14:09:36.588Z,25.25
2018-11-23T14:12:06.969Z,23.90
2018-11-23T14:14:37.678Z,27.05
2018-11-23T14:17:07.762Z,23.80
2018-11-23T14:19:37.765Z,24.90
2018-11-23T14:22:08.389Z,25.97
2018-11-23T14:24:39.537Z,26.23
2018-11-23T14:27:09.942Z,26.90
2018-11-23T14:29:41.138Z,24.75
2018-11-23T14:32:11.612Z,27.45
2018-11-23T14:34:42.267Z,25.20
2018-11-23T14:37:12.597Z,29.35
2018-11-23T14:39:42.880Z,26.00
2018-11-23T14:42:14.113Z,27.35
2018-11-23T14:44:44.448Z,27.15
2018-11-23T14:47:14.902Z,26.60
2018-11-23T14:49:46.757Z,27.65
2018-11-23T14:52:19.411Z,37.25
2018-11-23T14:54:50.085Z,40.43
2018-11-23T14:57:20.571Z,33.18
2018-11-23T14:59:51.250Z,27.20
2018-11-23T15:02:22.661Z,30.17
2018-11-23T15:04:53.096Z,34.98
2018-11-23T15:07:23.526Z,34.88
2018-11-23T15:09:53.835Z,34.25
2018-11-23T15:12:24.148Z,86.32
2018-11-23T15:14:54.931Z,49.38
2018-11-23T15:17:25.013Z,39.83
2018-11-23T15:19:55.085Z,31.35
2018-11-23T15:22:25.205Z,29.57
2018-11-23T15:24:55.230Z,31.23
2018-11-23T15:27:25.764Z,28.98
2018-11-23T15:29:56.117Z,31.02
2018-11-23T15:32:27.419Z,29.63
2018-11-23T15:34:57.444Z,34.78
2018-11-23T15:37:28.114Z,34.20
2018-11-23T15:39:59.910Z,30.57
2018-11-23T15:42:30.261Z,29.18
2018-11-23T15:45:00.663Z,28.90
2018-11-23T15:47:31.560Z,29.05
2018-11-23T15:50:02.674Z,28.70
2018-11-23T15:52:33.294Z,29.45
2018-11-23T15:55:08.297Z,30.40
2018-11-23T15:57:38.896Z,30.50
2018-11-23T16:00:13.085Z,28.67
2018-11-23T16:02:43.869Z,27.82
2018-11-23T16:05:14.820Z,27.35
2018-11-23T16:07:45.706Z,25.35
2018-11-23T16:10:24.806Z,26.30
2018-11-23T16:12:56.493Z,27.40
2018-11-23T16:15:27.262Z,25.35
2018-11-23T16:17:57.762Z,26.40
2018-11-23T16:20:35.440Z,32.50
2018-11-23T16:23:07.055Z,31.77
2018-11-23T16:25:38.527Z,27.32
2018-11-23T16:28:09.641Z,26.60
2018-11-23T16:30:48.551Z,27.95
2018-11-23T16:33:24.684Z,28.95
2018-11-23T16:35:54.930Z,29.48
2018-11-23T16:38:25.521Z,30.72
2018-11-23T16:40:59.671Z,30.62
2018-11-23T16:43:30.925Z,27.67
2018-11-23T16:46:01.300Z,26.27
2018-11-23T16:48:32.996Z,29.90
2018-11-23T16:51:07.061Z,29.72
2018-11-23T16:53:37.502Z,30.57
2018-11-23T16:56:08.370Z,33.58
2018-11-23T16:58:38.674Z,29.80
2018-11-23T17:01:09.121Z,28.77
2018-11-23T17:03:39.394Z,27.85
2018-11-23T17:06:09.729Z,25.97
2018-11-23T17:08:40.808Z,29.02
2018-11-23T17:11:14.351Z,30.05
2018-11-23T17:13:44.764Z,27.70
2018-11-23T17:16:19.446Z,23.67
2018-11-23T17:18:50.182Z,23.25
2018-11-23T17:21:20.772Z,22.87
2018-11-23T17:23:52.040Z,24.77
2018-11-23T17:29:14.239Z,27.52
2018-11-23T17:31:45.107Z,25.15
2018-11-23T17:34:17.577Z,29.02
2018-11-23T17:36:47.995Z,26.90
2018-11-23T17:39:20.272Z,23.87
2018-11-23T17:41:50.977Z,19.23
2018-11-23T17:44:21.448Z,20.77
2018-11-23T17:46:51.838Z,19.60
2018-11-23T17:49:23.677Z,19.60
2018-11-23T17:51:53.695Z,21.52
2018-11-23T17:54:24.060Z,21.62
2018-11-23T17:56:55.019Z,22.37
2018-11-23T17:59:25.163Z,27.70
2018-11-23T18:01:56.940Z,22.80
2018-11-23T18:04:27.392Z,23.70
2018-11-23T18:06:57.553Z,21.77
2018-11-23T18:09:27.757Z,24.27
2018-11-23T18:11:58.120Z,22.87
2018-11-23T18:14:29.126Z,31.12
2018-11-23T18:17:00.145Z,28.85
2018-11-23T18:19:30.508Z,25.72
2018-11-23T18:22:00.577Z,24.00
2018-11-23T18:24:31.009Z,27.32
2018-11-23T18:27:01.206Z,23.47
2018-11-23T18:29:31.241Z,23.55
2018-11-23T18:32:01.501Z,20.72
2018-11-23T18:34:31.807Z,21.57
2018-11-23T18:37:01.930Z,24.87
2018-11-23T18:39:32.165Z,21.27
2018-11-23T18:42:02.180Z,23.83
2018-11-23T18:44:32.682Z,20.92
2018-11-23T18:47:02.673Z,18.87
2018-11-23T18:49:32.875Z,19.17
2018-11-23T18:52:03.026Z,15.90
2018-11-23T18:54:33.338Z,14.10
2018-11-23T18:57:03.392Z,18.90
2018-11-23T18:59:33.341Z,15.08
2018-11-23T19:02:03.630Z,18.85
2018-11-23T19:04:33.592Z,24.00
2018-11-23T19:07:08.107Z,19.05
2018-11-23T19:09:34.989Z,18.02
2018-11-23T19:12:05.181Z,18.27
2018-11-23T19:14:35.750Z,19.73
2018-11-23T19:17:06.502Z,18.05
2018-11-23T19:19:36.735Z,18.55
2018-11-23T19:22:07.487Z,16.05
2018-11-23T19:24:37.728Z,14.85
2018-11-23T19:27:07.933Z,16.97
2018-11-23T19:29:38.852Z,13.93
2018-11-23T19:32:08.951Z,16.55
2018-11-23T19:34:39.139Z,14.93
2018-11-23T19:37:09.352Z,15.68
2018-11-23T19:39:40.306Z,14.65
2018-11-23T19:42:10.356Z,16.37
2018-11-23T19:44:40.560Z,15.23
2018-11-23T19:47:11.860Z,17.37
2018-11-23T19:49:42.479Z,18.98
2018-11-23T19:52:12.645Z,17.92
2018-11-23T19:54:45.888Z,18.20
2018-11-23T19:57:21.661Z,15.35
2018-11-23T19:59:52.685Z,17.80
2018-11-23T20:02:24.412Z,19.32
2018-11-23T20:04:54.940Z,20.35
2018-11-23T20:07:26.300Z,21.17
2018-11-23T20:09:57.068Z,17.95
2018-11-23T20:12:27.268Z,21.07
2018-11-23T20:14:57.665Z,24.10
2018-11-23T20:17:28.460Z,21.95
2018-11-23T20:19:58.854Z,16.23
2018-11-23T20:22:29.346Z,18.37
2018-11-23T20:25:00.768Z,20.95
2018-11-23T20:27:31.723Z,17.77
2018-11-23T20:30:02.199Z,20.05
2018-11-23T20:32:33.393Z,19.37
2018-11-23T20:35:05.278Z,17.35
2018-11-23T20:37:35.800Z,16.87
2018-11-23T20:40:10.464Z,16.67
2018-11-23T20:42:40.820Z,15.50
2018-11-23T20:45:12.034Z,20.25
2018-11-23T20:47:43.254Z,18.70
2018-11-23T20:50:16.009Z,18.57
2018-11-23T20:52:46.223Z,21.23
2018-11-23T20:55:19.835Z,21.12
2018-11-23T20:57:51.313Z,22.07
2018-11-23T21:00:23.046Z,20.37
2018-11-23T21:02:54.329Z,20.50
2018-11-23T21:05:25.100Z,21.90
2018-11-23T21:07:55.995Z,24.20
2018-11-23T21:10:28.187Z,24.75
2018-11-23T21:12:58.726Z,22.80
2018-11-23T21:15:30.219Z,24.65
2018-11-23T21:18:03.544Z,25.17
2018-11-23T21:20:34.124Z,26.17
2018-11-23T21:23:06.216Z,23.40
2018-11-23T21:25:36.520Z,24.12
2018-11-23T21:28:06.855Z,23.02
2018-11-23T21:30:37.375Z,22.25
2018-11-23T21:33:07.953Z,22.80
2018-11-23T21:35:39.221Z,21.87
2018-11-23T21:38:10.662Z,23.60
2018-11-23T21:40:44.274Z,25.68
2018-11-23T21:43:11.266Z,39.00
2018-11-23T21:45:41.705Z,46.05
2018-11-23T21:48:12.079Z,33.45
2018-11-23T21:50:42.286Z,26.80
2018-11-23T21:53:12.493Z,30.80
2018-11-23T21:55:42.834Z,37.55
2018-11-23T21:58:13.076Z,44.50
2018-11-23T22:00:43.164Z,42.38
2018-11-23T22:03:13.938Z,28.98
2018-11-23T22:05:44.208Z,29.18
2018-11-23T22:08:14.234Z,30.25
2018-11-23T22:10:45.327Z,31.02
2018-11-23T22:13:15.617Z,24.90
2018-11-23T22:15:45.886Z,22.22
2018-11-23T22:18:16.159Z,21.50
2018-11-23T22:20:46.393Z,23.32
2018-11-23T22:23:16.454Z,19.48
2018-11-23T22:25:47.401Z,19.25
2018-11-23T22:28:17.817Z,19.30
2018-11-23T22:30:48.382Z,21.17
2018-11-23T22:33:19.605Z,21.17
2018-11-23T22:35:49.853Z,19.52
2018-11-23T22:38:20.192Z,20.43
2018-11-23T22:40:50.427Z,23.77
2018-11-23T22:43:21.352Z,20.95
2018-11-23T22:45:51.711Z,23.55
2018-11-23T22:48:22.376Z,20.72
2018-11-23T22:50:52.617Z,22.10
2018-11-23T22:53:22.903Z,20.43
2018-11-23T22:55:53.016Z,19.12
2018-11-23T22:58:24.699Z,21.25
2018-11-23T23:01:00.075Z,19.50
2018-11-23T23:03:30.320Z,19.52
2018-11-23T23:06:00.472Z,19.50
2018-11-23T23:08:31.040Z,20.15
2018-11-23T23:11:01.034Z,18.98
2018-11-23T23:13:31.381Z,23.12
2018-11-23T23:16:01.494Z,24.57
2018-11-23T23:18:31.795Z,22.07
2018-11-23T23:21:01.779Z,22.13
2018-11-23T23:23:31.667Z,21.80
2018-11-23T23:26:01.995Z,21.25
2018-11-23T23:28:32.960Z,19.98
2018-11-23T23:31:04.048Z,18.45
2018-11-23T23:33:34.409Z,17.12
2018-11-23T23:36:04.369Z,17.07
2018-11-23T23:38:34.488Z,18.92
2018-11-23T23:41:04.729Z,18.42
2018-11-23T23:43:34.900Z,17.95
2018-11-23T23:46:05.376Z,20.37
2018-11-23T23:48:35.589Z,19.02
2018-11-23T23:51:06.560Z,19.92
2018-11-23T23:53:36.694Z,19.70
2018-11-23T23:56:10.777Z,20.40
2018-11-23T23:58:40.783Z,18.40
